< < Back
Terminal Aerodrome Forecast


Current Version              Previous Versions:   1  2  3  4  5  6  7  8  9  

Terminal Aerodrome Forecast

856
FTUS42 KGSP 241137
TAFGSP
TAF
KGSP 241137Z 2412/2512 VRB02KT P6SM VCSH BKN016 OVC025
      TEMPO 2412/2415 SCT016 OVC025
     FM241500 16003KT P6SM BKN035
     FM250000 16004KT P6SM SCT050=

Latest METAR

157
SAUS70 KWBC 250600 RRL
MTRGSP
METAR KGSP 250553Z AUTO 00000KT 10SM BKN075 22/21 A3019 RMK AO2 SLP210
T02220206 10250 20222 58013


USA.gov is the U.S. government's official web portal to all federal, state and local government web resources and services.